createdAt,value
2023-02-19T00:01:34.056Z,-2.54
2023-02-19T00:04:21.979Z,-2.61
2023-02-19T00:06:49.035Z,-2.70
2023-02-19T00:09:17.192Z,-2.67
2023-02-19T00:11:43.862Z,-2.71
2023-02-19T00:14:14.201Z,-2.78
2023-02-19T00:16:40.786Z,-2.72
2023-02-19T00:19:08.787Z,-2.70
2023-02-19T00:21:35.793Z,-2.54
2023-02-19T00:24:05.250Z,-2.63
2023-02-19T00:26:31.801Z,-2.67
2023-02-19T00:28:58.724Z,-2.63
2023-02-19T00:31:26.963Z,-2.67
2023-02-19T00:33:55.769Z,-2.67
2023-02-19T00:36:22.852Z,-2.71
2023-02-19T00:38:49.732Z,-2.66
2023-02-19T00:41:21.969Z,-2.63
2023-02-19T00:43:52.974Z,-2.49
2023-02-19T00:46:23.878Z,-2.52
2023-02-19T00:48:50.891Z,-2.58
2023-02-19T00:51:17.418Z,-2.56
2023-02-19T00:53:44.208Z,-2.56
2023-02-19T00:56:11.152Z,-2.55
2023-02-19T00:58:37.713Z,-2.47
2023-02-19T01:01:06.490Z,-2.49
2023-02-19T01:03:37.006Z,-2.41
2023-02-19T01:06:04.513Z,-2.31
2023-02-19T01:08:32.707Z,-2.35
2023-02-19T01:10:59.750Z,-2.47
2023-02-19T01:13:28.310Z,-2.48
2023-02-19T01:15:55.242Z,-2.45
2023-02-19T01:18:21.713Z,-2.44
2023-02-19T01:20:49.541Z,-2.41
2023-02-19T01:23:15.985Z,-2.41
2023-02-19T01:25:42.704Z,-2.40
2023-02-19T01:28:09.388Z,-2.42
2023-02-19T01:30:37.117Z,-2.45
2023-02-19T01:33:08.189Z,-2.31
2023-02-19T01:35:36.345Z,-2.44
2023-02-19T01:38:04.099Z,-2.57
2023-02-19T01:40:30.572Z,-2.58
2023-02-19T01:42:58.377Z,-2.60
2023-02-19T01:45:31.692Z,-2.56
2023-02-19T01:48:17.544Z,-2.61
2023-02-19T01:50:54.131Z,-2.69
2023-02-19T01:53:23.092Z,-2.65
2023-02-19T01:55:53.506Z,-2.61
2023-02-19T01:58:21.242Z,-2.62
2023-02-19T02:00:47.785Z,-2.62
2023-02-19T02:03:14.407Z,-2.51
2023-02-19T02:05:46.704Z,-2.56
2023-02-19T02:08:32.924Z,-2.65
2023-02-19T02:10:59.475Z,-2.70
2023-02-19T02:13:26.359Z,-2.74
2023-02-19T02:16:11.439Z,-2.79
2023-02-19T02:18:54.147Z,-2.83
2023-02-19T02:21:36.284Z,-2.75
2023-02-19T02:24:02.706Z,-2.73
2023-02-19T02:26:38.414Z,-2.67
2023-02-19T02:29:23.842Z,-2.62
2023-02-19T02:32:03.902Z,-2.67
2023-02-19T02:34:35.570Z,-2.80
2023-02-19T02:37:04.156Z,-2.83
2023-02-19T02:39:33.711Z,-2.82
2023-02-19T02:42:19.174Z,-2.89
2023-02-19T02:45:05.710Z,-2.87
2023-02-19T02:47:42.939Z,-3.02
2023-02-19T02:50:11.982Z,-3.00
2023-02-19T02:52:58.432Z,-2.99
2023-02-19T02:55:25.045Z,-3.01
2023-02-19T02:57:51.820Z,-3.02
2023-02-19T03:00:18.471Z,-2.91
2023-02-19T03:02:44.956Z,-2.99
2023-02-19T03:05:35.785Z,-2.86
2023-02-19T03:08:20.781Z,-2.77
2023-02-19T03:10:59.477Z,-2.78
2023-02-19T03:13:47.553Z,-2.87
2023-02-19T03:16:40.602Z,-2.95
2023-02-19T03:19:19.172Z,-3.00
2023-02-19T03:21:59.903Z,-3.04
2023-02-19T03:25:08.248Z,-3.06
2023-02-19T03:27:36.032Z,-3.06
2023-02-19T03:30:05.085Z,-3.24
2023-02-19T03:32:34.873Z,-3.23
2023-02-19T03:35:13.651Z,-3.22
2023-02-19T03:37:49.735Z,-3.24
2023-02-19T03:40:16.584Z,-3.11
2023-02-19T03:42:43.040Z,-3.06
2023-02-19T03:45:09.548Z,-3.15
2023-02-19T03:47:48.260Z,-3.13
2023-02-19T03:50:27.538Z,-3.26
2023-02-19T03:53:11.647Z,-3.22
2023-02-19T03:55:50.309Z,-3.24
2023-02-19T03:58:19.956Z,-3.28
2023-02-19T04:00:53.730Z,-3.29
2023-02-19T04:03:31.029Z,-3.29
2023-02-19T04:06:02.699Z,-3.32
2023-02-19T04:08:30.851Z,-3.21
2023-02-19T04:10:58.436Z,-3.23
2023-02-19T04:13:28.044Z,-3.34
2023-02-19T04:15:57.601Z,-3.43
2023-02-19T04:18:29.402Z,-3.51
2023-02-19T04:20:57.011Z,-3.54
2023-02-19T04:23:25.065Z,-3.50
2023-02-19T04:25:54.955Z,-3.52
2023-02-19T04:28:21.646Z,-3.47
2023-02-19T04:30:48.264Z,-3.47
2023-02-19T04:33:14.855Z,-3.44
2023-02-19T04:35:41.470Z,-3.43
2023-02-19T04:38:07.991Z,-3.50
2023-02-19T04:40:34.553Z,-3.41
2023-02-19T04:43:00.985Z,-3.33
2023-02-19T04:45:27.481Z,-3.28
2023-02-19T04:47:53.944Z,-3.41
2023-02-19T04:50:20.473Z,-3.51
2023-02-19T04:52:46.915Z,-3.58
2023-02-19T04:55:13.398Z,-3.57
2023-02-19T04:57:39.858Z,-3.57
2023-02-19T05:00:06.704Z,-3.64
2023-02-19T05:02:33.191Z,-3.68
2023-02-19T05:04:59.698Z,-3.63
2023-02-19T05:07:26.214Z,-3.67
2023-02-19T05:09:52.649Z,-3.61
2023-02-19T05:12:19.132Z,-3.61
2023-02-19T05:14:45.633Z,-3.65
2023-02-19T05:17:12.208Z,-3.52
2023-02-19T05:19:39.196Z,-3.40
2023-02-19T05:22:07.404Z,-3.46
2023-02-19T05:24:33.901Z,-3.59
2023-02-19T05:27:00.365Z,-3.66
2023-02-19T05:29:28.356Z,-3.63
2023-02-19T05:31:54.911Z,-3.58
2023-02-19T05:34:22.705Z,-3.58
2023-02-19T05:36:49.173Z,-3.56
2023-02-19T05:39:16.864Z,-3.61
2023-02-19T05:41:43.368Z,-3.60
2023-02-19T05:44:11.781Z,-3.60
2023-02-19T05:46:38.356Z,-3.65
2023-02-19T05:49:04.956Z,-3.52
2023-02-19T05:51:31.403Z,-3.44
2023-02-19T05:53:58.000Z,-3.36
2023-02-19T05:56:30.321Z,-3.39
2023-02-19T05:58:58.305Z,-3.34
2023-02-19T06:01:25.910Z,-3.36
2023-02-19T06:03:52.965Z,-3.34
2023-02-19T06:06:21.362Z,-3.43
2023-02-19T06:08:48.840Z,-3.41
2023-02-19T06:11:16.677Z,-3.52
2023-02-19T06:13:43.177Z,-3.56
2023-02-19T06:16:11.120Z,-3.58
2023-02-19T06:18:39.581Z,-3.61
2023-02-19T06:21:07.818Z,-3.57
2023-02-19T06:23:36.376Z,-3.58
2023-02-19T06:26:13.422Z,-3.67
2023-02-19T06:28:40.528Z,-3.67
2023-02-19T06:31:08.191Z,-3.57
2023-02-19T06:33:40.627Z,-3.50
2023-02-19T06:36:10.692Z,-3.61
2023-02-19T06:38:37.126Z,-3.68
2023-02-19T06:41:06.475Z,-3.75
2023-02-19T06:43:33.316Z,-3.80
2023-02-19T06:46:01.513Z,-3.84
2023-02-19T06:48:28.777Z,-3.76
2023-02-19T06:50:55.393Z,-3.79
2023-02-19T06:53:23.356Z,-3.84
2023-02-19T06:56:15.885Z,-3.82
2023-02-19T06:58:42.349Z,-3.85
2023-02-19T07:01:11.856Z,-3.80
2023-02-19T07:03:38.510Z,-3.89
2023-02-19T07:06:05.180Z,-3.89
2023-02-19T07:08:31.645Z,-3.80
2023-02-19T07:10:58.734Z,-3.76
2023-02-19T07:13:26.799Z,-3.76
2023-02-19T07:15:59.571Z,-3.75
2023-02-19T07:18:26.245Z,-3.73
2023-02-19T07:20:53.221Z,-3.75
2023-02-19T07:23:21.105Z,-3.68
2023-02-19T07:25:47.696Z,-3.59
2023-02-19T07:28:14.216Z,-3.60
2023-02-19T07:30:40.780Z,-3.44
2023-02-19T07:33:10.274Z,-3.49
2023-02-19T07:35:38.328Z,-3.53
2023-02-19T07:38:04.871Z,-3.42
2023-02-19T07:40:31.387Z,-3.35
2023-02-19T07:42:59.166Z,-3.36
2023-02-19T07:45:25.637Z,-3.32
2023-02-19T07:47:52.250Z,-3.36
2023-02-19T07:50:18.777Z,-3.28
2023-02-19T07:52:45.262Z,-3.25
2023-02-19T07:55:11.817Z,-3.27
2023-02-19T07:57:38.319Z,-3.19
2023-02-19T08:00:05.005Z,-3.14
2023-02-19T08:02:50.061Z,-2.97
2023-02-19T08:05:16.643Z,-3.05
2023-02-19T08:07:43.201Z,-3.04
2023-02-19T08:10:28.237Z,-3.04
2023-02-19T08:13:14.284Z,-3.00
2023-02-19T08:15:40.723Z,-3.00
2023-02-19T08:18:07.698Z,-2.98
2023-02-19T08:20:35.277Z,-2.92
2023-02-19T08:23:02.292Z,-2.86
2023-02-19T08:25:28.898Z,-2.79
2023-02-19T08:27:55.372Z,-2.65
2023-02-19T08:30:22.233Z,-2.60
2023-02-19T08:32:48.734Z,-2.62
2023-02-19T08:35:16.356Z,-2.59
2023-02-19T08:37:42.807Z,-2.61
2023-02-19T08:40:10.692Z,-2.56
2023-02-19T08:42:37.134Z,-2.53
2023-02-19T08:45:05.682Z,-2.54
2023-02-19T08:47:34.461Z,-2.40
2023-02-19T08:50:00.970Z,-2.32
2023-02-19T08:52:27.449Z,-2.37
2023-02-19T08:54:54.161Z,-2.37
2023-02-19T08:57:22.288Z,-2.36
2023-02-19T08:59:48.729Z,-2.34
2023-02-19T09:02:15.195Z,-2.27
2023-02-19T09:04:41.702Z,-2.24
2023-02-19T09:07:09.689Z,-2.04
2023-02-19T09:09:39.621Z,-2.01
2023-02-19T09:12:08.360Z,-2.01
2023-02-19T09:14:35.301Z,-1.98
2023-02-19T09:17:03.548Z,-1.93
2023-02-19T09:19:30.372Z,-1.83
2023-02-19T09:21:59.016Z,-1.66
2023-02-19T09:24:25.760Z,-1.66
2023-02-19T09:26:53.052Z,-1.70
2023-02-19T09:29:19.936Z,-1.80
2023-02-19T09:31:46.739Z,-1.66
2023-02-19T09:34:13.513Z,-1.46
2023-02-19T09:36:39.979Z,-1.42
2023-02-19T09:39:07.822Z,-1.47
2023-02-19T09:41:36.241Z,-1.41
2023-02-19T09:44:03.686Z,-1.41
2023-02-19T09:46:38.941Z,-1.21
2023-02-19T09:49:07.950Z,-1.16
2023-02-19T09:51:38.339Z,-1.24
2023-02-19T09:54:08.081Z,-1.25
2023-02-19T09:56:34.652Z,-1.20
2023-02-19T09:59:01.422Z,-1.08
2023-02-19T10:01:32.381Z,-0.98
2023-02-19T10:03:58.982Z,-1.09
2023-02-19T10:06:27.053Z,-1.06
2023-02-19T10:08:57.535Z,-1.00
2023-02-19T10:11:25.864Z,-0.84
2023-02-19T10:13:52.321Z,-0.86
2023-02-19T10:16:24.909Z,-0.88
2023-02-19T10:18:51.496Z,-0.82
2023-02-19T10:21:25.659Z,-0.67
2023-02-19T10:23:55.090Z,-0.62
2023-02-19T10:26:22.528Z,-0.69
2023-02-19T10:28:48.980Z,-0.70
2023-02-19T10:31:20.943Z,-0.56
2023-02-19T10:33:48.777Z,-0.43
2023-02-19T10:36:43.014Z,-0.52
2023-02-19T10:39:21.553Z,-0.55
2023-02-19T10:41:49.257Z,-0.50
2023-02-19T10:44:18.758Z,-0.37
2023-02-19T10:46:46.733Z,-0.41
2023-02-19T10:49:33.005Z,-0.43
2023-02-19T10:52:18.681Z,-0.42
2023-02-19T10:54:46.609Z,-0.24
2023-02-19T10:57:19.193Z,-0.19
2023-02-19T10:59:53.020Z,-0.25
2023-02-19T11:02:20.661Z,-0.26
2023-02-19T11:05:02.156Z,-0.21
2023-02-19T11:07:28.782Z,-0.06
2023-02-19T11:09:55.645Z,-0.10
2023-02-19T11:12:30.540Z,-0.13
2023-02-19T11:14:57.127Z,-0.14
2023-02-19T11:17:27.112Z,-0.01
2023-02-19T11:19:55.200Z,0.06
2023-02-19T11:22:29.763Z,0.02
2023-02-19T11:24:59.409Z,0.03
2023-02-19T11:27:26.028Z,-0.03
2023-02-19T11:29:52.557Z,0.11
2023-02-19T11:32:25.584Z,0.23
2023-02-19T11:34:52.481Z,0.13
2023-02-19T11:37:22.455Z,0.13
2023-02-19T11:39:50.644Z,0.12
2023-02-19T11:42:19.937Z,0.12
2023-02-19T11:44:55.252Z,0.24
2023-02-19T11:47:27.761Z,0.29
2023-02-19T11:49:54.182Z,0.21
2023-02-19T11:52:23.740Z,0.18
2023-02-19T11:54:54.096Z,0.18
2023-02-19T11:57:32.894Z,0.17
2023-02-19T12:00:11.302Z,0.20
2023-02-19T12:02:49.582Z,0.26
2023-02-19T12:05:30.428Z,0.27
2023-02-19T12:07:58.428Z,0.32
2023-02-19T12:10:29.164Z,0.47
2023-02-19T12:12:55.577Z,0.44
2023-02-19T12:15:27.402Z,0.41
2023-02-19T12:17:53.883Z,0.45
2023-02-19T12:20:21.674Z,0.55
2023-02-19T12:23:08.056Z,0.54
2023-02-19T12:25:48.404Z,0.50
2023-02-19T12:28:24.199Z,0.46
2023-02-19T12:30:50.700Z,0.59
2023-02-19T12:33:23.142Z,0.53
2023-02-19T12:36:14.389Z,0.51
2023-02-19T12:38:44.864Z,0.62
2023-02-19T12:41:15.200Z,0.72
2023-02-19T12:43:47.044Z,0.65
2023-02-19T12:46:24.435Z,0.63
2023-02-19T12:49:02.585Z,0.74
2023-02-19T12:51:35.415Z,0.78
2023-02-19T12:54:01.883Z,0.69
2023-02-19T12:56:31.221Z,0.69
2023-02-19T12:59:04.192Z,0.80
2023-02-19T13:01:33.885Z,0.82
2023-02-19T13:04:17.078Z,0.72
2023-02-19T13:06:51.437Z,0.69
2023-02-19T13:09:35.973Z,0.82
2023-02-19T13:12:05.986Z,0.88
2023-02-19T13:15:10.944Z,0.75
2023-02-19T13:17:56.761Z,0.83
2023-02-19T13:20:35.876Z,0.84
2023-02-19T13:23:59.086Z,0.96
2023-02-19T13:26:43.826Z,0.84
2023-02-19T13:29:14.250Z,0.76
2023-02-19T13:31:43.483Z,0.90
2023-02-19T13:34:19.122Z,0.96
2023-02-19T13:36:48.413Z,0.84
2023-02-19T13:41:55.874Z,0.94
2023-02-19T13:44:25.472Z,1.04
2023-02-19T13:46:53.209Z,0.90
2023-02-19T13:49:28.508Z,0.89
2023-02-19T13:51:59.372Z,0.91
2023-02-19T13:54:27.746Z,0.88
2023-02-19T13:57:23.590Z,1.01
2023-02-19T13:59:53.945Z,1.00
2023-02-19T14:02:20.436Z,0.91
2023-02-19T14:04:51.541Z,0.87
2023-02-19T14:07:18.041Z,0.83
2023-02-19T14:09:45.558Z,0.97
2023-02-19T14:12:16.395Z,1.02
2023-02-19T14:14:52.485Z,0.90
2023-02-19T14:17:28.203Z,0.86
2023-02-19T14:20:14.572Z,0.86
2023-02-19T14:22:45.284Z,0.87
2023-02-19T14:25:23.929Z,1.00
2023-02-19T14:27:53.513Z,0.82
2023-02-19T14:30:22.222Z,0.83
2023-02-19T14:32:54.528Z,0.84
2023-02-19T14:35:42.604Z,0.79
2023-02-19T14:38:19.985Z,0.89
2023-02-19T14:40:48.528Z,0.68
2023-02-19T14:43:17.692Z,0.70
2023-02-19T14:45:55.317Z,0.67
2023-02-19T14:48:25.315Z,0.87
2023-02-19T14:50:55.122Z,0.80
2023-02-19T14:53:24.769Z,0.67
2023-02-19T14:55:51.756Z,0.62
2023-02-19T14:58:45.010Z,0.59
2023-02-19T15:01:27.737Z,0.69
2023-02-19T15:03:55.194Z,0.73
2023-02-19T15:06:23.501Z,0.59
2023-02-19T15:08:53.545Z,0.50
2023-02-19T15:11:24.599Z,0.47
2023-02-19T15:13:53.492Z,0.43
2023-02-19T15:16:21.365Z,0.44
2023-02-19T15:18:48.650Z,0.43
2023-02-19T15:21:20.995Z,0.34
2023-02-19T15:23:47.829Z,0.28
2023-02-19T15:26:20.806Z,0.21
2023-02-19T15:28:47.249Z,0.13
2023-02-19T15:31:15.459Z,0.37
2023-02-19T15:33:49.364Z,0.25
2023-02-19T15:36:17.588Z,-0.06
2023-02-19T15:38:45.607Z,-0.03
2023-02-19T15:41:21.167Z,-0.04
2023-02-19T15:43:53.877Z,0.00
2023-02-19T15:46:25.028Z,0.14
2023-02-19T15:48:57.566Z,-0.08
2023-02-19T15:51:36.185Z,-0.18
2023-02-19T15:54:11.961Z,-0.25
2023-02-19T15:56:42.441Z,-0.31
2023-02-19T15:59:17.823Z,-0.14
2023-02-19T16:01:44.593Z,-0.26
2023-02-19T16:04:13.658Z,-0.37
2023-02-19T16:06:52.378Z,-0.43
2023-02-19T16:09:24.853Z,-0.48
2023-02-19T16:11:53.455Z,-0.31
2023-02-19T16:14:24.268Z,-0.37
2023-02-19T16:16:59.251Z,-0.51
2023-02-19T16:19:30.713Z,-0.53
2023-02-19T16:21:58.467Z,-0.60
2023-02-19T16:24:34.925Z,-0.45
2023-02-19T16:27:02.602Z,-0.60
2023-02-19T16:29:30.497Z,-0.56
2023-02-19T16:32:01.629Z,-0.61
2023-02-19T16:34:40.697Z,-0.63
2023-02-19T16:37:25.954Z,-0.63
2023-02-19T16:40:08.976Z,-0.60
2023-02-19T16:42:58.182Z,-0.78
2023-02-19T16:45:27.562Z,-0.92
2023-02-19T16:47:55.279Z,-0.95
2023-02-19T16:50:24.070Z,-0.92
2023-02-19T16:52:55.879Z,-0.79
2023-02-19T16:55:22.850Z,-0.95
2023-02-19T16:57:49.672Z,-0.95
2023-02-19T17:00:26.237Z,-0.98
2023-02-19T17:02:54.727Z,-1.01
2023-02-19T17:05:22.488Z,-0.88
2023-02-19T17:07:50.766Z,-1.02
2023-02-19T17:10:23.060Z,-1.01
2023-02-19T17:12:50.102Z,-1.09
2023-02-19T17:15:17.942Z,-1.12
2023-02-19T17:17:45.684Z,-0.96
2023-02-19T17:20:21.320Z,-1.18
2023-02-19T17:22:48.388Z,-1.27
2023-02-19T17:25:14.863Z,-1.35
2023-02-19T17:27:41.372Z,-1.21
2023-02-19T17:30:18.804Z,-1.10
2023-02-19T17:32:45.325Z,-1.35
2023-02-19T17:35:11.781Z,-1.42
2023-02-19T17:37:38.452Z,-1.62
2023-02-19T17:40:06.337Z,-1.73
2023-02-19T17:42:32.772Z,-1.56
2023-02-19T17:44:59.228Z,-1.43
2023-02-19T17:47:25.751Z,-1.61
2023-02-19T17:49:52.279Z,-1.68
2023-02-19T17:52:19.393Z,-1.79
2023-02-19T17:54:47.123Z,-1.78
2023-02-19T17:57:13.573Z,-1.49
2023-02-19T17:59:41.113Z,-1.59
2023-02-19T18:02:07.563Z,-1.63
2023-02-19T18:04:35.545Z,-1.77
2023-02-19T18:07:03.244Z,-1.79
2023-02-19T18:09:30.272Z,-1.61
2023-02-19T18:11:56.815Z,-1.67
2023-02-19T18:14:23.433Z,-1.85
2023-02-19T18:16:50.758Z,-1.85
2023-02-19T18:19:17.847Z,-1.84
2023-02-19T18:21:44.318Z,-1.65
2023-02-19T18:24:10.793Z,-1.76
2023-02-19T18:26:37.267Z,-1.83
2023-02-19T18:29:04.889Z,-1.90
2023-02-19T18:31:32.553Z,-1.73
2023-02-19T18:34:00.185Z,-1.67
2023-02-19T18:36:26.679Z,-1.82
2023-02-19T18:38:54.414Z,-1.92
2023-02-19T18:41:21.426Z,-2.08
2023-02-19T18:43:48.525Z,-1.99
2023-02-19T18:46:15.056Z,-1.94
2023-02-19T18:48:41.640Z,-1.78
2023-02-19T18:51:11.887Z,-2.10
2023-02-19T18:53:38.614Z,-2.21
2023-02-19T18:56:05.522Z,-2.37
2023-02-19T18:58:32.043Z,-2.40
2023-02-19T19:00:59.555Z,-2.25
2023-02-19T19:03:26.085Z,-2.11
2023-02-19T19:05:52.741Z,-2.36
2023-02-19T19:08:19.172Z,-2.43
2023-02-19T19:10:45.739Z,-2.57
2023-02-19T19:13:12.181Z,-2.51
2023-02-19T19:15:42.464Z,-2.45
2023-02-19T19:18:08.979Z,-2.53
2023-02-19T19:20:39.909Z,-2.37
2023-02-19T19:23:07.484Z,-2.44
2023-02-19T19:25:33.954Z,-2.55
2023-02-19T19:28:00.489Z,-2.51
2023-02-19T19:30:27.062Z,-2.37
2023-02-19T19:32:53.880Z,-2.45
2023-02-19T19:35:21.618Z,-2.61
2023-02-19T19:37:48.282Z,-2.80
2023-02-19T19:40:18.304Z,-2.81
2023-02-19T19:42:44.896Z,-2.82
2023-02-19T19:45:11.919Z,-2.81
2023-02-19T19:47:38.432Z,-2.80
2023-02-19T19:50:05.142Z,-2.63
2023-02-19T19:52:32.973Z,-2.53
2023-02-19T19:54:59.425Z,-2.69
2023-02-19T19:57:27.308Z,-2.76
2023-02-19T19:59:53.807Z,-2.78
2023-02-19T20:02:20.477Z,-2.85
2023-02-19T20:04:46.953Z,-3.06
2023-02-19T20:07:13.417Z,-3.13
2023-02-19T20:09:39.909Z,-3.09
2023-02-19T20:12:08.004Z,-2.97
2023-02-19T20:14:35.904Z,-2.70
2023-02-19T20:17:02.421Z,-2.76
2023-02-19T20:19:28.901Z,-2.96
2023-02-19T20:21:55.812Z,-3.04
2023-02-19T20:24:26.228Z,-3.03
2023-02-19T20:27:01.405Z,-2.97
2023-02-19T20:29:29.374Z,-2.93
2023-02-19T20:31:59.135Z,-3.05
2023-02-19T20:34:26.319Z,-3.16
2023-02-19T20:36:52.831Z,-3.16
2023-02-19T20:39:21.141Z,-3.28
2023-02-19T20:41:48.505Z,-3.27
2023-02-19T20:44:16.525Z,-3.24
2023-02-19T20:46:44.766Z,-3.21
2023-02-19T20:49:11.861Z,-3.32
2023-02-19T20:51:44.400Z,-3.52
2023-02-19T20:54:10.910Z,-3.52
2023-02-19T20:56:37.369Z,-3.39
2023-02-19T20:59:03.820Z,-3.48
2023-02-19T21:01:30.400Z,-3.59
2023-02-19T21:03:56.854Z,-3.67
2023-02-19T21:06:23.419Z,-3.73
2023-02-19T21:08:49.857Z,-3.83
2023-02-19T21:11:16.335Z,-3.93
2023-02-19T21:13:43.012Z,-3.94
2023-02-19T21:16:09.628Z,-3.93
2023-02-19T21:18:36.267Z,-3.74
2023-02-19T21:21:02.885Z,-3.85
2023-02-19T21:23:30.708Z,-3.91
2023-02-19T21:25:57.238Z,-4.02
2023-02-19T21:28:24.656Z,-4.17
2023-02-19T21:30:51.209Z,-4.14
2023-02-19T21:33:17.770Z,-4.09
2023-02-19T21:35:44.646Z,-4.06
2023-02-19T21:38:11.131Z,-3.93
2023-02-19T21:40:37.723Z,-3.80
2023-02-19T21:43:05.863Z,-4.01
2023-02-19T21:45:32.388Z,-4.00
2023-02-19T21:47:58.901Z,-3.97
2023-02-19T21:50:25.376Z,-4.07
2023-02-19T21:52:51.901Z,-4.25
2023-02-19T21:55:18.369Z,-4.33
2023-02-19T21:57:44.829Z,-4.39
2023-02-19T22:00:11.577Z,-4.44
2023-02-19T22:02:38.063Z,-4.49
2023-02-19T22:05:04.680Z,-4.45
2023-02-19T22:07:31.117Z,-4.40
2023-02-19T22:09:57.619Z,-4.46
2023-02-19T22:12:24.104Z,-4.39
2023-02-19T22:14:51.742Z,-4.33
2023-02-19T22:17:18.484Z,-4.32
2023-02-19T22:19:44.927Z,-4.33
2023-02-19T22:22:11.548Z,-4.30
2023-02-19T22:24:37.996Z,-4.17
2023-02-19T22:27:04.509Z,-4.14
2023-02-19T22:29:31.444Z,-4.25
2023-02-19T22:31:58.063Z,-4.17
2023-02-19T22:34:24.812Z,-4.14
2023-02-19T22:36:51.244Z,-4.11
2023-02-19T22:39:25.506Z,-4.19
2023-02-19T22:41:52.358Z,-4.22
2023-02-19T22:44:19.276Z,-4.13
2023-02-19T22:46:47.060Z,-4.14
2023-02-19T22:49:13.793Z,-4.08
2023-02-19T22:51:40.576Z,-3.99
2023-02-19T22:54:07.021Z,-4.08
2023-02-19T22:56:33.502Z,-4.03
2023-02-19T22:58:59.940Z,-4.11
2023-02-19T23:01:26.558Z,-4.01
2023-02-19T23:03:54.380Z,-4.01
2023-02-19T23:06:22.684Z,-4.16
2023-02-19T23:08:49.324Z,-4.20
2023-02-19T23:11:20.592Z,-4.20
2023-02-19T23:13:47.124Z,-4.41
2023-02-19T23:16:13.919Z,-4.26
2023-02-19T23:18:41.030Z,-4.26
2023-02-19T23:21:07.598Z,-4.20
2023-02-19T23:23:35.241Z,-4.10
2023-02-19T23:26:02.322Z,-3.92
2023-02-19T23:28:28.911Z,-4.09
2023-02-19T23:30:55.517Z,-4.20
2023-02-19T23:33:22.059Z,-4.24
2023-02-19T23:35:48.518Z,-4.26
2023-02-19T23:38:15.024Z,-4.35
2023-02-19T23:40:41.526Z,-4.29
2023-02-19T23:43:07.996Z,-4.17
2023-02-19T23:45:34.516Z,-3.94
2023-02-19T23:48:01.020Z,-3.84
2023-02-19T23:50:27.569Z,-3.79
2023-02-19T23:52:56.432Z,-3.87
2023-02-19T23:55:23.074Z,-3.82
2023-02-19T23:57:49.624Z,-3.86
